sensor_id;sensor_type;location;lat;lon;timestamp;pressure;altitude;pressure_sealevel;temperature;humidity
27712;BME280;2377;51.734;8.950;2023-06-14T00:00:10;97872.66;;;18.45;41.87
27712;BME280;2377;51.734;8.950;2023-06-14T00:02:39;97880.44;;;18.40;42.05
27712;BME280;2377;51.734;8.950;2023-06-14T00:05:07;97874.47;;;18.34;42.47
27712;BME280;2377;51.734;8.950;2023-06-14T00:07:36;97882.50;;;18.32;42.04
27712;BME280;2377;51.734;8.950;2023-06-14T00:10:05;97878.34;;;18.31;41.88
27712;BME280;2377;51.734;8.950;2023-06-14T00:12:32;97882.75;;;18.31;42.18
27712;BME280;2377;51.734;8.950;2023-06-14T00:14:59;97875.78;;;18.31;42.18
27712;BME280;2377;51.734;8.950;2023-06-14T00:17:29;97883.28;;;18.33;42.53
27712;BME280;2377;51.734;8.950;2023-06-14T00:19:57;97882.75;;;18.31;42.41
27712;BME280;2377;51.734;8.950;2023-06-14T00:22:24;97883.00;;;18.29;42.28
27712;BME280;2377;51.734;8.950;2023-06-14T00:24:52;97885.09;;;18.32;42.76
27712;BME280;2377;51.734;8.950;2023-06-14T00:27:19;97893.38;;;18.29;42.48
27712;BME280;2377;51.734;8.950;2023-06-14T00:29:46;97891.56;;;18.25;42.65
27712;BME280;2377;51.734;8.950;2023-06-14T00:32:13;97890.78;;;18.19;42.61
27712;BME280;2377;51.734;8.950;2023-06-14T00:34:41;97898.56;;;18.14;42.55
27712;BME280;2377;51.734;8.950;2023-06-14T00:37:08;97898.03;;;18.07;42.66
27712;BME280;2377;51.734;8.950;2023-06-14T00:39:35;97897.53;;;18.00;42.86
27712;BME280;2377;51.734;8.950;2023-06-14T00:42:03;97893.63;;;17.92;43.31
27712;BME280;2377;51.734;8.950;2023-06-14T00:44:31;97891.03;;;17.87;43.19
27712;BME280;2377;51.734;8.950;2023-06-14T00:46:58;97886.63;;;17.82;43.39
27712;BME280;2377;51.734;8.950;2023-06-14T00:49:25;97889.47;;;17.75;43.62
27712;BME280;2377;51.734;8.950;2023-06-14T00:51:54;97887.13;;;17.74;43.82
27712;BME280;2377;51.734;8.950;2023-06-14T00:54:21;97885.31;;;17.74;43.62
27712;BME280;2377;51.734;8.950;2023-06-14T00:56:48;97888.16;;;17.78;44.13
27712;BME280;2377;51.734;8.950;2023-06-14T00:59:15;97885.59;;;17.78;44.16
27712;BME280;2377;51.734;8.950;2023-06-14T01:01:43;97885.31;;;17.80;44.07
27712;BME280;2377;51.734;8.950;2023-06-14T01:04:10;97885.59;;;17.78;44.37
27712;BME280;2377;51.734;8.950;2023-06-14T01:06:55;97889.47;;;17.75;44.54
27712;BME280;2377;51.734;8.950;2023-06-14T01:09:37;97893.81;;;17.75;44.39
27712;BME280;2377;51.734;8.950;2023-06-14T01:12:13;97886.84;;;17.70;44.62
27712;BME280;2377;51.734;8.950;2023-06-14T01:14:42;97881.94;;;17.64;44.56
27712;BME280;2377;51.734;8.950;2023-06-14T01:17:11;97885.00;;;17.56;44.75
27712;BME280;2377;51.734;8.950;2023-06-14T01:19:42;97887.06;;;17.48;45.05
27712;BME280;2377;51.734;8.950;2023-06-14T01:22:11;97891.69;;;17.36;45.02
27712;BME280;2377;51.734;8.950;2023-06-14T01:24:40;97896.81;;;17.26;45.48
27712;BME280;2377;51.734;8.950;2023-06-14T01:27:11;97895.47;;;17.08;45.91
27712;BME280;2377;51.734;8.950;2023-06-14T01:29:40;97891.50;;;16.95;45.94
27712;BME280;2377;51.734;8.950;2023-06-14T01:32:12;97895.56;;;16.81;46.43
27712;BME280;2377;51.734;8.950;2023-06-14T01:34:39;97892.09;;;16.65;47.24
27712;BME280;2377;51.734;8.950;2023-06-14T01:37:07;97891.78;;;16.51;47.48
27712;BME280;2377;51.734;8.950;2023-06-14T01:39:35;97888.38;;;16.45;47.51
27712;BME280;2377;51.734;8.950;2023-06-14T01:42:06;97887.06;;;16.43;48.01
27712;BME280;2377;51.734;8.950;2023-06-14T01:44:33;97894.56;;;16.44;47.09
27712;BME280;2377;51.734;8.950;2023-06-14T01:47:00;97897.41;;;16.48;47.11
27712;BME280;2377;51.734;8.950;2023-06-14T01:49:28;97894.81;;;16.48;47.15
27712;BME280;2377;51.734;8.950;2023-06-14T01:51:55;97898.97;;;16.49;47.25
27712;BME280;2377;51.734;8.950;2023-06-14T01:54:22;97895.88;;;16.47;47.43
27712;BME280;2377;51.734;8.950;2023-06-14T01:56:51;97896.38;;;16.44;47.32
27712;BME280;2377;51.734;8.950;2023-06-14T01:59:20;97888.88;;;16.42;47.10
27712;BME280;2377;51.734;8.950;2023-06-14T02:01:47;97896.31;;;16.39;47.30
27712;BME280;2377;51.734;8.950;2023-06-14T02:04:14;97892.44;;;16.36;47.03
27712;BME280;2377;51.734;8.950;2023-06-14T02:06:41;97899.91;;;16.33;47.32
27712;BME280;2377;51.734;8.950;2023-06-14T02:09:08;97891.09;;;16.28;47.70
27712;BME280;2377;51.734;8.950;2023-06-14T02:11:35;97892.13;;;16.27;47.79
27712;BME280;2377;51.734;8.950;2023-06-14T02:14:02;97894.44;;;16.29;47.85
27712;BME280;2377;51.734;8.950;2023-06-14T02:16:30;97892.91;;;16.28;47.67
27712;BME280;2377;51.734;8.950;2023-06-14T02:19:01;97892.91;;;16.28;47.69
27712;BME280;2377;51.734;8.950;2023-06-14T02:21:28;97892.59;;;16.24;47.92
27712;BME280;2377;51.734;8.950;2023-06-14T02:23:55;97891.56;;;16.20;48.18
27712;BME280;2377;51.734;8.950;2023-06-14T02:26:24;97896.41;;;16.17;48.23
27712;BME280;2377;51.734;8.950;2023-06-14T02:28:51;97894.81;;;16.11;48.10
27712;BME280;2377;51.734;8.950;2023-06-14T02:31:18;97892.94;;;16.01;48.16
27712;BME280;2377;51.734;8.950;2023-06-14T02:33:46;97896.44;;;15.90;48.69
27712;BME280;2377;51.734;8.950;2023-06-14T02:36:13;97893.22;;;15.77;48.72
27712;BME280;2377;51.734;8.950;2023-06-14T02:38:40;97898.81;;;15.69;48.71
27712;BME280;2377;51.734;8.950;2023-06-14T02:41:07;97897.97;;;15.63;48.77
27712;BME280;2377;51.734;8.950;2023-06-14T02:43:35;97898.19;;;15.57;48.86
27712;BME280;2377;51.734;8.950;2023-06-14T02:46:02;97907.88;;;15.50;49.53
27712;BME280;2377;51.734;8.950;2023-06-14T02:48:30;97902.91;;;15.43;49.54
27712;BME280;2377;51.734;8.950;2023-06-14T02:50:58;97907.75;;;15.39;49.44
27712;BME280;2377;51.734;8.950;2023-06-14T02:53:25;97909.34;;;15.40;49.66
27712;BME280;2377;51.734;8.950;2023-06-14T02:55:53;97906.69;;;15.35;49.77
27712;BME280;2377;51.734;8.950;2023-06-14T02:58:21;97904.59;;;15.32;49.62
27712;BME280;2377;51.734;8.950;2023-06-14T03:00:50;97904.53;;;15.27;49.62
27712;BME280;2377;51.734;8.950;2023-06-14T03:03:18;97899.88;;;15.24;49.73
27712;BME280;2377;51.734;8.950;2023-06-14T03:05:50;97902.38;;;15.19;50.24
27712;BME280;2377;51.734;8.950;2023-06-14T03:08:19;97902.38;;;15.19;50.11
27712;BME280;2377;51.734;8.950;2023-06-14T03:10:47;97906.50;;;15.20;50.06
27712;BME280;2377;51.734;8.950;2023-06-14T03:13:15;97904.94;;;15.19;50.11
27712;BME280;2377;51.734;8.950;2023-06-14T03:15:43;97909.81;;;15.15;50.31
27712;BME280;2377;51.734;8.950;2023-06-14T03:18:10;97906.13;;;15.11;50.68
27712;BME280;2377;51.734;8.950;2023-06-14T03:20:38;97907.41;;;15.09;50.80
27712;BME280;2377;51.734;8.950;2023-06-14T03:23:07;97908.16;;;15.09;50.63
27712;BME280;2377;51.734;8.950;2023-06-14T03:25:35;97906.63;;;15.08;50.82
27712;BME280;2377;51.734;8.950;2023-06-14T03:28:04;97908.66;;;15.06;50.72
27712;BME280;2377;51.734;8.950;2023-06-14T03:30:32;97910.69;;;15.04;50.95
27712;BME280;2377;51.734;8.950;2023-06-14T03:32:59;97910.41;;;15.00;51.41
27712;BME280;2377;51.734;8.950;2023-06-14T03:35:28;97918.03;;;14.95;52.25
27712;BME280;2377;51.734;8.950;2023-06-14T03:37:55;97914.63;;;14.90;52.31
27712;BME280;2377;51.734;8.950;2023-06-14T03:40:22;97917.63;;;14.82;52.84
27712;BME280;2377;51.734;8.950;2023-06-14T03:42:54;97929.06;;;14.74;53.48
27712;BME280;2377;51.734;8.950;2023-06-14T03:45:21;97928.72;;;14.65;53.63
27712;BME280;2377;51.734;8.950;2023-06-14T03:47:49;97926.75;;;14.55;54.31
27712;BME280;2377;51.734;8.950;2023-06-14T03:50:17;97926.00;;;14.43;54.64
27712;BME280;2377;51.734;8.950;2023-06-14T03:52:45;97938.25;;;14.36;54.86
27712;BME280;2377;51.734;8.950;2023-06-14T03:55:12;97936.16;;;14.33;54.58
27712;BME280;2377;51.734;8.950;2023-06-14T03:57:39;97944.41;;;14.35;54.68
27712;BME280;2377;51.734;8.950;2023-06-14T04:00:10;97942.63;;;14.35;55.28
27712;BME280;2377;51.734;8.950;2023-06-14T04:02:38;97949.56;;;14.35;55.70
27712;BME280;2377;51.734;8.950;2023-06-14T04:05:06;97952.91;;;14.35;55.82
27712;BME280;2377;51.734;8.950;2023-06-14T04:07:34;97952.22;;;14.40;55.33
27712;BME280;2377;51.734;8.950;2023-06-14T04:10:07;97948.69;;;14.46;55.89
27712;BME280;2377;51.734;8.950;2023-06-14T04:12:34;97957.06;;;14.53;55.17
27712;BME280;2377;51.734;8.950;2023-06-14T04:15:01;97966.50;;;14.65;55.73
27712;BME280;2377;51.734;8.950;2023-06-14T04:17:30;97965.03;;;14.69;56.14
27712;BME280;2377;51.734;8.950;2023-06-14T04:19:58;97961.44;;;14.70;56.04
27712;BME280;2377;51.734;8.950;2023-06-14T04:22:25;97962.53;;;14.74;56.25
27712;BME280;2377;51.734;8.950;2023-06-14T04:24:54;97969.59;;;14.84;55.98
27712;BME280;2377;51.734;8.950;2023-06-14T04:27:22;97970.94;;;14.86;56.68
27712;BME280;2377;51.734;8.950;2023-06-14T04:29:51;97977.16;;;14.90;56.36
27712;BME280;2377;51.734;8.950;2023-06-14T04:32:23;97981.94;;;14.98;56.45
27712;BME280;2377;51.734;8.950;2023-06-14T04:34:54;97991.81;;;15.07;56.04
27712;BME280;2377;51.734;8.950;2023-06-14T04:37:21;97989.84;;;15.14;56.17
27712;BME280;2377;51.734;8.950;2023-06-14T04:39:49;97986.81;;;15.17;56.87
27712;BME280;2377;51.734;8.950;2023-06-14T04:42:17;97977.03;;;15.19;57.30
27712;BME280;2377;51.734;8.950;2023-06-14T04:44:46;97989.47;;;15.22;56.93
27712;BME280;2377;51.734;8.950;2023-06-14T04:47:14;97983.59;;;15.27;56.86
27712;BME280;2377;51.734;8.950;2023-06-14T04:49:42;97981.03;;;15.27;56.83
27712;BME280;2377;51.734;8.950;2023-06-14T04:52:11;97985.47;;;15.31;56.95
27712;BME280;2377;51.734;8.950;2023-06-14T04:54:39;97991.94;;;15.34;57.26
27712;BME280;2377;51.734;8.950;2023-06-14T04:57:08;97993.31;;;15.41;56.43
27712;BME280;2377;51.734;8.950;2023-06-14T04:59:40;98005.75;;;15.50;56.59
27712;BME280;2377;51.734;8.950;2023-06-14T05:02:07;97995.78;;;15.53;56.49
27712;BME280;2377;51.734;8.950;2023-06-14T05:04:34;97995.09;;;15.63;56.22
27712;BME280;2377;51.734;8.950;2023-06-14T05:07:06;97993.16;;;15.70;55.92
27712;BME280;2377;51.734;8.950;2023-06-14T05:09:35;97996.34;;;15.77;56.79
27712;BME280;2377;51.734;8.950;2023-06-14T05:12:03;97991.19;;;15.77;56.40
27712;BME280;2377;51.734;8.950;2023-06-14T05:14:30;98001.06;;;15.85;56.70
27712;BME280;2377;51.734;8.950;2023-06-14T05:16:57;97999.56;;;15.90;56.57
27712;BME280;2377;51.734;8.950;2023-06-14T05:19:25;97998.31;;;15.92;56.69
27712;BME280;2377;51.734;8.950;2023-06-14T05:21:53;97992.44;;;15.97;56.16
27712;BME280;2377;51.734;8.950;2023-06-14T05:24:20;97988.38;;;16.06;55.88
27712;BME280;2377;51.734;8.950;2023-06-14T05:26:49;97990.22;;;16.11;55.72
27712;BME280;2377;51.734;8.950;2023-06-14T05:29:16;97989.25;;;16.17;55.30
27712;BME280;2377;51.734;8.950;2023-06-14T05:31:43;97987.03;;;16.25;55.39
27712;BME280;2377;51.734;8.950;2023-06-14T05:34:10;97986.31;;;16.30;55.41
27712;BME280;2377;51.734;8.950;2023-06-14T05:36:37;98002.81;;;16.34;54.89
27712;BME280;2377;51.734;8.950;2023-06-14T05:39:05;97992.28;;;16.36;54.95
27712;BME280;2377;51.734;8.950;2023-06-14T05:41:32;97998.50;;;16.40;55.01
27712;BME280;2377;51.734;8.950;2023-06-14T05:44:01;98002.16;;;16.44;54.88
27712;BME280;2377;51.734;8.950;2023-06-14T05:46:31;98001.13;;;16.45;55.44
27712;BME280;2377;51.734;8.950;2023-06-14T05:48:59;98004.25;;;16.47;55.31
27712;BME280;2377;51.734;8.950;2023-06-14T05:51:26;98014.06;;;16.50;55.14
27712;BME280;2377;51.734;8.950;2023-06-14T05:53:53;98010.47;;;16.51;55.28
27712;BME280;2377;51.734;8.950;2023-06-14T05:56:20;98020.06;;;16.56;55.37
27712;BME280;2377;51.734;8.950;2023-06-14T05:58:47;98017.22;;;16.57;55.71
27712;BME280;2377;51.734;8.950;2023-06-14T06:01:16;98014.16;;;16.60;55.47
27712;BME280;2377;51.734;8.950;2023-06-14T06:03:43;98021.16;;;16.65;55.54
27712;BME280;2377;51.734;8.950;2023-06-14T06:06:12;98013.16;;;16.66;55.59
27712;BME280;2377;51.734;8.950;2023-06-14T06:08:39;98026.38;;;16.70;55.16
27712;BME280;2377;51.734;8.950;2023-06-14T06:11:06;98028.69;;;16.72;55.04
27712;BME280;2377;51.734;8.950;2023-06-14T06:13:33;98029.19;;;16.68;55.59
27712;BME280;2377;51.734;8.950;2023-06-14T06:16:01;98035.16;;;16.74;55.80
27712;BME280;2377;51.734;8.950;2023-06-14T06:18:29;98045.78;;;16.78;55.44
27712;BME280;2377;51.734;8.950;2023-06-14T06:20:57;98037.09;;;16.84;55.78
27712;BME280;2377;51.734;8.950;2023-06-14T06:23:24;98034.56;;;16.89;55.10
27712;BME280;2377;51.734;8.950;2023-06-14T06:25:51;98042.88;;;16.96;54.84
27712;BME280;2377;51.734;8.950;2023-06-14T06:28:19;98041.34;;;17.00;54.79
27712;BME280;2377;51.734;8.950;2023-06-14T06:30:46;98044.97;;;17.04;54.71
27712;BME280;2377;51.734;8.950;2023-06-14T06:33:13;98043.22;;;17.10;54.41
27712;BME280;2377;51.734;8.950;2023-06-14T06:35:42;98051.78;;;17.21;54.71
27712;BME280;2377;51.734;8.950;2023-06-14T06:38:09;98042.84;;;17.33;54.13
27712;BME280;2377;51.734;8.950;2023-06-14T06:40:39;98049.59;;;17.45;54.17
27712;BME280;2377;51.734;8.950;2023-06-14T06:43:06;98048.91;;;17.54;54.24
27712;BME280;2377;51.734;8.950;2023-06-14T06:45:33;98053.88;;;17.71;54.30
27712;BME280;2377;51.734;8.950;2023-06-14T06:48:01;98048.78;;;17.92;53.37
27712;BME280;2377;51.734;8.950;2023-06-14T06:50:28;98055.84;;;18.02;52.85
27712;BME280;2377;51.734;8.950;2023-06-14T06:52:57;98062.84;;;18.16;52.48
27712;BME280;2377;51.734;8.950;2023-06-14T06:55:24;98058.22;;;18.19;52.09
27712;BME280;2377;51.734;8.950;2023-06-14T06:57:52;98053.31;;;18.37;51.73
27712;BME280;2377;51.734;8.950;2023-06-14T07:00:20;98057.22;;;18.55;51.45
27712;BME280;2377;51.734;8.950;2023-06-14T07:02:47;98054.13;;;18.69;49.94
27712;BME280;2377;51.734;8.950;2023-06-14T07:05:15;98062.44;;;18.81;49.64
27712;BME280;2377;51.734;8.950;2023-06-14T07:07:42;98060.09;;;19.00;50.61
27712;BME280;2377;51.734;8.950;2023-06-14T07:10:10;98064.25;;;19.21;50.34
27712;BME280;2377;51.734;8.950;2023-06-14T07:12:37;98068.38;;;19.38;49.34
27712;BME280;2377;51.734;8.950;2023-06-14T07:15:06;98066.97;;;19.61;49.12
27712;BME280;2377;51.734;8.950;2023-06-14T07:17:34;98076.28;;;19.77;48.02
27712;BME280;2377;51.734;8.950;2023-06-14T07:20:02;98074.97;;;19.80;47.63
27712;BME280;2377;51.734;8.950;2023-06-14T07:22:34;98080.16;;;19.80;47.98
27712;BME280;2377;51.734;8.950;2023-06-14T07:25:01;98084.31;;;19.86;47.84
27712;BME280;2377;51.734;8.950;2023-06-14T07:27:30;98080.91;;;19.91;47.64
27712;BME280;2377;51.734;8.950;2023-06-14T07:29:57;98084.97;;;20.12;47.79
27712;BME280;2377;51.734;8.950;2023-06-14T07:32:24;98086.19;;;20.30;47.43
27712;BME280;2377;51.734;8.950;2023-06-14T07:34:51;98089.22;;;20.42;46.73
27712;BME280;2377;51.734;8.950;2023-06-14T07:37:18;98088.38;;;20.57;47.76
27712;BME280;2377;51.734;8.950;2023-06-14T07:39:45;98091.38;;;20.75;46.28
27712;BME280;2377;51.734;8.950;2023-06-14T07:42:12;98094.13;;;20.88;46.11
27712;BME280;2377;51.734;8.950;2023-06-14T07:44:41;98095.91;;;20.93;45.61
27712;BME280;2377;51.734;8.950;2023-06-14T07:47:08;98094.03;;;20.99;45.94
27712;BME280;2377;51.734;8.950;2023-06-14T07:49:35;98090.78;;;21.17;45.73
27712;BME280;2377;51.734;8.950;2023-06-14T07:52:02;98087.03;;;21.28;45.14
27712;BME280;2377;51.734;8.950;2023-06-14T07:54:30;98096.28;;;21.40;45.46
27712;BME280;2377;51.734;8.950;2023-06-14T07:56:58;98097.69;;;21.56;45.09
27712;BME280;2377;51.734;8.950;2023-06-14T07:59:26;98094.13;;;21.47;44.74
27712;BME280;2377;51.734;8.950;2023-06-14T08:01:54;98093.31;;;21.22;44.92
27712;BME280;2377;51.734;8.950;2023-06-14T08:04:21;98096.50;;;21.14;45.32
27712;BME280;2377;51.734;8.950;2023-06-14T08:06:49;98101.69;;;21.19;45.05
27712;BME280;2377;51.734;8.950;2023-06-14T08:09:16;98097.19;;;21.25;44.66
27712;BME280;2377;51.734;8.950;2023-06-14T08:11:44;98100.28;;;21.27;45.29
27712;BME280;2377;51.734;8.950;2023-06-14T08:14:11;98102.50;;;21.15;44.79
27712;BME280;2377;51.734;8.950;2023-06-14T08:16:38;98098.63;;;21.12;44.58
27712;BME280;2377;51.734;8.950;2023-06-14T08:19:06;98101.28;;;21.02;44.84
27712;BME280;2377;51.734;8.950;2023-06-14T08:21:33;98114.28;;;21.02;45.50
27712;BME280;2377;51.734;8.950;2023-06-14T08:24:02;98109.38;;;21.29;45.12
27712;BME280;2377;51.734;8.950;2023-06-14T08:26:30;98113.09;;;21.52;44.47
27712;BME280;2377;51.734;8.950;2023-06-14T08:28:58;98112.00;;;21.78;44.71
27712;BME280;2377;51.734;8.950;2023-06-14T08:31:25;98104.47;;;22.00;44.15
27712;BME280;2377;51.734;8.950;2023-06-14T08:33:53;98108.41;;;22.22;44.09
27712;BME280;2377;51.734;8.950;2023-06-14T08:36:21;98111.91;;;22.31;42.80
27712;BME280;2377;51.734;8.950;2023-06-14T08:38:48;98115.66;;;22.25;42.42
27712;BME280;2377;51.734;8.950;2023-06-14T08:41:21;98119.25;;;22.29;42.95
27712;BME280;2377;51.734;8.950;2023-06-14T08:43:50;98119.16;;;22.34;43.20
27712;BME280;2377;51.734;8.950;2023-06-14T08:46:18;98110.25;;;22.40;42.78
27712;BME280;2377;51.734;8.950;2023-06-14T08:48:49;98111.28;;;22.58;42.65
27712;BME280;2377;51.734;8.950;2023-06-14T08:51:20;98114.06;;;22.80;42.67
27712;BME280;2377;51.734;8.950;2023-06-14T08:53:54;98109.97;;;22.93;41.76
27712;BME280;2377;51.734;8.950;2023-06-14T08:56:25;98101.44;;;23.07;41.38
27712;BME280;2377;51.734;8.950;2023-06-14T08:58:53;98111.34;;;23.24;41.41
27712;BME280;2377;51.734;8.950;2023-06-14T09:01:22;98117.31;;;23.24;41.20
27712;BME280;2377;51.734;8.950;2023-06-14T09:03:50;98125.69;;;23.07;41.73
27712;BME280;2377;51.734;8.950;2023-06-14T09:06:17;98129.50;;;22.96;42.46
27712;BME280;2377;51.734;8.950;2023-06-14T09:08:47;98123.84;;;23.08;42.48
27712;BME280;2377;51.734;8.950;2023-06-14T09:11:16;98128.63;;;23.19;42.19
27712;BME280;2377;51.734;8.950;2023-06-14T09:13:46;98117.22;;;23.29;41.60
27712;BME280;2377;51.734;8.950;2023-06-14T09:16:13;98130.56;;;23.41;41.43
27712;BME280;2377;51.734;8.950;2023-06-14T09:18:44;98119.28;;;23.46;40.98
27712;BME280;2377;51.734;8.950;2023-06-14T09:21:14;98122.97;;;23.59;40.84
27712;BME280;2377;51.734;8.950;2023-06-14T09:23:43;98123.34;;;23.66;40.65
27712;BME280;2377;51.734;8.950;2023-06-14T09:26:13;98118.03;;;23.71;40.45
27712;BME280;2377;51.734;8.950;2023-06-14T09:28:42;98124.59;;;23.55;40.50
27712;BME280;2377;51.734;8.950;2023-06-14T09:31:11;98123.16;;;23.62;41.18
27712;BME280;2377;51.734;8.950;2023-06-14T09:33:38;98122.31;;;23.81;41.16
27712;BME280;2377;51.734;8.950;2023-06-14T09:36:11;98132.28;;;23.93;41.32
27712;BME280;2377;51.734;8.950;2023-06-14T09:38:40;98132.84;;;24.03;41.83
27712;BME280;2377;51.734;8.950;2023-06-14T09:41:07;98130.31;;;24.12;41.61
27712;BME280;2377;51.734;8.950;2023-06-14T09:43:37;98136.16;;;24.32;40.33
27712;BME280;2377;51.734;8.950;2023-06-14T09:46:06;98132.59;;;24.41;40.03
27712;BME280;2377;51.734;8.950;2023-06-14T09:48:33;98131.50;;;24.42;39.58
27712;BME280;2377;51.734;8.950;2023-06-14T09:51:02;98129.16;;;24.41;39.78
27712;BME280;2377;51.734;8.950;2023-06-14T09:53:31;98136.44;;;24.44;39.49
27712;BME280;2377;51.734;8.950;2023-06-14T09:56:00;98140.88;;;24.43;39.95
27712;BME280;2377;51.734;8.950;2023-06-14T09:58:29;98125.50;;;24.42;39.87
27712;BME280;2377;51.734;8.950;2023-06-14T10:00:59;98129.66;;;24.43;40.03
27712;BME280;2377;51.734;8.950;2023-06-14T10:03:29;98127.38;;;24.27;39.62
27712;BME280;2377;51.734;8.950;2023-06-14T10:06:02;98129.50;;;24.25;40.36
27712;BME280;2377;51.734;8.950;2023-06-14T10:08:32;98128.66;;;24.16;40.22
27712;BME280;2377;51.734;8.950;2023-06-14T10:11:03;98128.56;;;24.21;39.02
27712;BME280;2377;51.734;8.950;2023-06-14T10:13:32;98129.75;;;24.01;38.42
27712;BME280;2377;51.734;8.950;2023-06-14T10:16:11;98129.19;;;23.91;39.95
27712;BME280;2377;51.734;8.950;2023-06-14T10:18:47;98130.13;;;24.09;40.55
27712;BME280;2377;51.734;8.950;2023-06-14T10:21:25;98128.72;;;24.39;40.87
27712;BME280;2377;51.734;8.950;2023-06-14T10:24:01;98136.72;;;24.56;39.97
27712;BME280;2377;51.734;8.950;2023-06-14T10:26:30;98134.28;;;24.60;39.95
27712;BME280;2377;51.734;8.950;2023-06-14T10:29:00;98135.84;;;24.61;39.62
27712;BME280;2377;51.734;8.950;2023-06-14T10:31:46;98127.03;;;24.57;39.78
27712;BME280;2377;51.734;8.950;2023-06-14T10:34:22;98125.97;;;24.58;40.29
27712;BME280;2377;51.734;8.950;2023-06-14T10:37:05;98133.50;;;24.59;39.20
27712;BME280;2377;51.734;8.950;2023-06-14T10:39:41;98129.66;;;24.43;40.09
27712;BME280;2377;51.734;8.950;2023-06-14T10:42:10;98137.50;;;24.43;40.77
27712;BME280;2377;51.734;8.950;2023-06-14T10:44:43;98135.72;;;24.30;40.34
27712;BME280;2377;51.734;8.950;2023-06-14T10:47:23;98129.75;;;24.01;40.37
27712;BME280;2377;51.734;8.950;2023-06-14T10:49:53;98131.28;;;23.89;40.19
27712;BME280;2377;51.734;8.950;2023-06-14T10:52:27;98122.03;;;23.82;41.33
27712;BME280;2377;51.734;8.950;2023-06-14T10:55:09;98113.13;;;23.83;40.54
27712;BME280;2377;51.734;8.950;2023-06-14T10:57:39;98111.00;;;23.86;40.72
27712;BME280;2377;51.734;8.950;2023-06-14T11:00:08;98113.72;;;23.80;40.11
27712;BME280;2377;51.734;8.950;2023-06-14T11:03:43;98111.38;;;23.93;41.95
27712;BME280;2377;51.734;8.950;2023-06-14T11:06:14;98114.44;;;24.22;41.63
27712;BME280;2377;51.734;8.950;2023-06-14T11:09:19;98125.50;;;24.42;40.29
27712;BME280;2377;51.734;8.950;2023-06-14T11:11:49;98111.19;;;24.53;41.05
27712;BME280;2377;51.734;8.950;2023-06-14T11:14:18;98121.09;;;24.65;40.58
27712;BME280;2377;51.734;8.950;2023-06-14T11:16:48;98112.44;;;24.56;40.28
27712;BME280;2377;51.734;8.950;2023-06-14T11:19:17;98114.06;;;24.52;39.99
27712;BME280;2377;51.734;8.950;2023-06-14T11:21:48;98113.00;;;24.53;39.93
27712;BME280;2377;51.734;8.950;2023-06-14T11:24:17;98117.47;;;24.52;39.33
27712;BME280;2377;51.734;8.950;2023-06-14T11:26:44;98114.75;;;24.43;39.29
27712;BME280;2377;51.734;8.950;2023-06-14T11:29:11;98115.16;;;24.51;40.25
27712;BME280;2377;51.734;8.950;2023-06-14T11:31:43;98110.28;;;24.58;39.69
27712;BME280;2377;51.734;8.950;2023-06-14T11:34:11;98109.28;;;24.67;39.20
27712;BME280;2377;51.734;8.950;2023-06-14T11:36:40;98110.94;;;24.86;39.60
27712;BME280;2377;51.734;8.950;2023-06-14T11:39:08;98105.72;;;24.86;38.69
27712;BME280;2377;51.734;8.950;2023-06-14T11:41:38;98107.25;;;24.87;39.25
27712;BME280;2377;51.734;8.950;2023-06-14T11:44:06;98101.66;;;25.02;38.29
27712;BME280;2377;51.734;8.950;2023-06-14T11:46:34;98102.94;;;25.14;38.71
27712;BME280;2377;51.734;8.950;2023-06-14T11:49:02;98108.53;;;25.21;39.03
27712;BME280;2377;51.734;8.950;2023-06-14T11:51:30;98104.97;;;25.17;38.80
27712;BME280;2377;51.734;8.950;2023-06-14T11:54:00;98114.53;;;24.99;38.57
27712;BME280;2377;51.734;8.950;2023-06-14T11:56:28;98114.13;;;24.83;39.69
27712;BME280;2377;51.734;8.950;2023-06-14T11:58:57;98100.16;;;24.87;38.63
27712;BME280;2377;51.734;8.950;2023-06-14T12:01:24;98104.75;;;24.82;37.77
27712;BME280;2377;51.734;8.950;2023-06-14T12:03:54;98103.81;;;24.78;39.68
27712;BME280;2377;51.734;8.950;2023-06-14T12:06:29;98105.88;;;24.89;39.78
27712;BME280;2377;51.734;8.950;2023-06-14T12:09:05;98098.09;;;24.98;39.03
27712;BME280;2377;51.734;8.950;2023-06-14T12:11:38;98106.41;;;25.00;39.47
27712;BME280;2377;51.734;8.950;2023-06-14T12:14:07;98101.72;;;24.88;39.31
27712;BME280;2377;51.734;8.950;2023-06-14T12:16:37;98100.66;;;24.89;39.50
27712;BME280;2377;51.734;8.950;2023-06-14T12:19:12;98093.69;;;24.85;39.38
27712;BME280;2377;51.734;8.950;2023-06-14T12:21:40;98093.63;;;24.76;38.56
27712;BME280;2377;51.734;8.950;2023-06-14T12:24:09;98101.56;;;24.62;38.23
27712;BME280;2377;51.734;8.950;2023-06-14T12:26:39;98098.22;;;24.71;39.29
27712;BME280;2377;51.734;8.950;2023-06-14T12:29:07;98091.25;;;24.88;38.29
27712;BME280;2377;51.734;8.950;2023-06-14T12:31:34;98097.66;;;25.05;38.78
27712;BME280;2377;51.734;8.950;2023-06-14T12:34:03;98091.78;;;25.22;39.23
27712;BME280;2377;51.734;8.950;2023-06-14T12:36:30;98093.63;;;25.30;38.95
27712;BME280;2377;51.734;8.950;2023-06-14T12:38:58;98089.06;;;25.44;39.05
27712;BME280;2377;51.734;8.950;2023-06-14T12:41:26;98090.34;;;25.56;37.94
27712;BME280;2377;51.734;8.950;2023-06-14T12:43:53;98085.88;;;25.56;37.65
27712;BME280;2377;51.734;8.950;2023-06-14T12:46:21;98094.06;;;25.63;39.00
27712;BME280;2377;51.734;8.950;2023-06-14T12:48:48;98101.44;;;25.52;38.38
27712;BME280;2377;51.734;8.950;2023-06-14T12:51:15;98101.25;;;25.40;38.18
27712;BME280;2377;51.734;8.950;2023-06-14T12:53:43;98094.88;;;25.24;38.60
27712;BME280;2377;51.734;8.950;2023-06-14T12:56:11;98098.78;;;25.13;38.44
27712;BME280;2377;51.734;8.950;2023-06-14T12:58:39;98105.19;;;25.29;38.01
27712;BME280;2377;51.734;8.950;2023-06-14T13:01:07;98105.56;;;25.45;38.87
27712;BME280;2377;51.734;8.950;2023-06-14T13:03:34;98113.28;;;25.50;38.93
27712;BME280;2377;51.734;8.950;2023-06-14T13:06:03;98107.56;;;25.48;37.87
27712;BME280;2377;51.734;8.950;2023-06-14T13:08:31;98101.25;;;25.40;38.28
27712;BME280;2377;51.734;8.950;2023-06-14T13:10:58;98090.63;;;25.45;37.75
27712;BME280;2377;51.734;8.950;2023-06-14T13:13:26;98107.56;;;25.48;38.01
27712;BME280;2377;51.734;8.950;2023-06-14T13:15:54;98104.63;;;25.41;38.12
27712;BME280;2377;51.734;8.950;2023-06-14T13:18:22;98107.47;;;25.22;37.92